sensor_id;sensor_type;location;lat;lon;timestamp;P1;durP1;ratioP1;P2;durP2;ratioP2
359;SDS011;168;48.872;9.226;2022-12-18T00:01:57;67.10;;;37.57;;
359;SDS011;168;48.872;9.226;2022-12-18T00:04:26;56.78;;;36.20;;
359;SDS011;168;48.872;9.226;2022-12-18T00:06:54;60.30;;;35.85;;
359;SDS011;168;48.872;9.226;2022-12-18T00:09:25;59.33;;;37.53;;
359;SDS011;168;48.872;9.226;2022-12-18T00:11:55;53.97;;;35.70;;
359;SDS011;168;48.872;9.226;2022-12-18T00:14:29;66.70;;;36.95;;
359;SDS011;168;48.872;9.226;2022-12-18T00:16:58;61.70;;;37.40;;
359;SDS011;168;48.872;9.226;2022-12-18T00:19:31;58.58;;;35.38;;
359;SDS011;168;48.872;9.226;2022-12-18T00:22:00;58.90;;;35.50;;
359;SDS011;168;48.872;9.226;2022-12-18T00:24:30;69.80;;;37.97;;
359;SDS011;168;48.872;9.226;2022-12-18T00:26:57;61.78;;;37.53;;
359;SDS011;168;48.872;9.226;2022-12-18T00:29:27;53.00;;;35.30;;
359;SDS011;168;48.872;9.226;2022-12-18T00:32:05;64.95;;;37.83;;
359;SDS011;168;48.872;9.226;2022-12-18T00:34:32;62.57;;;37.77;;
359;SDS011;168;48.872;9.226;2022-12-18T00:37:00;60.47;;;37.33;;
359;SDS011;168;48.872;9.226;2022-12-18T00:39:27;64.03;;;37.10;;
359;SDS011;168;48.872;9.226;2022-12-18T00:41:55;63.78;;;38.85;;
359;SDS011;168;48.872;9.226;2022-12-18T00:44:41;54.97;;;36.97;;
359;SDS011;168;48.872;9.226;2022-12-18T00:47:09;63.88;;;37.95;;
359;SDS011;168;48.872;9.226;2022-12-18T00:49:36;62.05;;;38.72;;
359;SDS011;168;48.872;9.226;2022-12-18T00:52:03;70.93;;;36.40;;
359;SDS011;168;48.872;9.226;2022-12-18T00:54:32;58.87;;;36.30;;
359;SDS011;168;48.872;9.226;2022-12-18T00:57:18;61.13;;;36.73;;
359;SDS011;168;48.872;9.226;2022-12-18T00:59:48;59.60;;;37.00;;
359;SDS011;168;48.872;9.226;2022-12-18T01:02:20;63.70;;;36.80;;
359;SDS011;168;48.872;9.226;2022-12-18T01:04:56;64.43;;;38.47;;
359;SDS011;168;48.872;9.226;2022-12-18T01:07:29;64.37;;;38.10;;
359;SDS011;168;48.872;9.226;2022-12-18T01:09:59;60.08;;;37.67;;
359;SDS011;168;48.872;9.226;2022-12-18T01:12:36;59.17;;;35.40;;
359;SDS011;168;48.872;9.226;2022-12-18T01:15:10;69.03;;;37.03;;
359;SDS011;168;48.872;9.226;2022-12-18T01:17:49;67.13;;;36.80;;
359;SDS011;168;48.872;9.226;2022-12-18T01:20:19;69.80;;;38.90;;
359;SDS011;168;48.872;9.226;2022-12-18T01:22:47;61.23;;;36.43;;
359;SDS011;168;48.872;9.226;2022-12-18T01:25:26;66.55;;;39.20;;
359;SDS011;168;48.872;9.226;2022-12-18T01:27:55;58.40;;;34.57;;
359;SDS011;168;48.872;9.226;2022-12-18T01:30:25;61.47;;;37.03;;
359;SDS011;168;48.872;9.226;2022-12-18T01:32:53;61.07;;;35.53;;
359;SDS011;168;48.872;9.226;2022-12-18T01:35:23;63.07;;;35.90;;
359;SDS011;168;48.872;9.226;2022-12-18T01:37:53;65.47;;;36.58;;
359;SDS011;168;48.872;9.226;2022-12-18T01:40:21;64.25;;;38.47;;
359;SDS011;168;48.872;9.226;2022-12-18T01:42:49;69.47;;;39.20;;
359;SDS011;168;48.872;9.226;2022-12-18T01:45:26;68.88;;;39.58;;
359;SDS011;168;48.872;9.226;2022-12-18T01:47:55;70.40;;;38.00;;
359;SDS011;168;48.872;9.226;2022-12-18T01:50:27;66.50;;;37.83;;
359;SDS011;168;48.872;9.226;2022-12-18T01:52:59;61.60;;;37.10;;
359;SDS011;168;48.872;9.226;2022-12-18T01:55:30;70.00;;;37.25;;
359;SDS011;168;48.872;9.226;2022-12-18T01:58:05;68.85;;;37.30;;
359;SDS011;168;48.872;9.226;2022-12-18T02:00:34;68.53;;;35.45;;
359;SDS011;168;48.872;9.226;2022-12-18T02:03:02;59.63;;;36.13;;
359;SDS011;168;48.872;9.226;2022-12-18T02:05:34;75.35;;;39.22;;
359;SDS011;168;48.872;9.226;2022-12-18T02:08:10;62.10;;;36.20;;
359;SDS011;168;48.872;9.226;2022-12-18T02:10:45;70.85;;;38.13;;
359;SDS011;168;48.872;9.226;2022-12-18T02:13:20;60.55;;;33.85;;
359;SDS011;168;48.872;9.226;2022-12-18T02:15:58;66.13;;;34.72;;
359;SDS011;168;48.872;9.226;2022-12-18T02:18:48;70.03;;;35.25;;
359;SDS011;168;48.872;9.226;2022-12-18T02:21:22;70.90;;;36.45;;
359;SDS011;168;48.872;9.226;2022-12-18T02:24:01;56.95;;;33.85;;
359;SDS011;168;48.872;9.226;2022-12-18T02:26:42;54.97;;;34.80;;
359;SDS011;168;48.872;9.226;2022-12-18T02:29:12;64.50;;;34.97;;
359;SDS011;168;48.872;9.226;2022-12-18T02:31:44;57.40;;;35.83;;
359;SDS011;168;48.872;9.226;2022-12-18T02:34:16;58.33;;;32.90;;
359;SDS011;168;48.872;9.226;2022-12-18T02:36:45;58.97;;;34.75;;
359;SDS011;168;48.872;9.226;2022-12-18T02:39:14;58.80;;;34.92;;
359;SDS011;168;48.872;9.226;2022-12-18T02:41:46;63.20;;;34.15;;
359;SDS011;168;48.872;9.226;2022-12-18T02:44:14;58.58;;;33.25;;
359;SDS011;168;48.872;9.226;2022-12-18T02:46:42;58.25;;;31.70;;
359;SDS011;168;48.872;9.226;2022-12-18T02:49:14;58.45;;;34.15;;
359;SDS011;168;48.872;9.226;2022-12-18T02:51:50;63.07;;;35.37;;
359;SDS011;168;48.872;9.226;2022-12-18T02:54:26;64.85;;;35.05;;
359;SDS011;168;48.872;9.226;2022-12-18T02:57:18;60.58;;;32.55;;
359;SDS011;168;48.872;9.226;2022-12-18T02:59:50;57.13;;;34.00;;
359;SDS011;168;48.872;9.226;2022-12-18T03:02:26;65.50;;;35.50;;
359;SDS011;168;48.872;9.226;2022-12-18T03:05:01;62.53;;;34.27;;
359;SDS011;168;48.872;9.226;2022-12-18T03:07:38;59.83;;;33.75;;
359;SDS011;168;48.872;9.226;2022-12-18T03:10:11;63.70;;;36.42;;
359;SDS011;168;48.872;9.226;2022-12-18T03:12:44;57.75;;;32.17;;
359;SDS011;168;48.872;9.226;2022-12-18T03:15:16;56.97;;;34.00;;
359;SDS011;168;48.872;9.226;2022-12-18T03:17:49;57.07;;;34.10;;
359;SDS011;168;48.872;9.226;2022-12-18T03:20:21;53.70;;;33.63;;
359;SDS011;168;48.872;9.226;2022-12-18T03:22:53;57.50;;;32.17;;
359;SDS011;168;48.872;9.226;2022-12-18T03:25:24;60.03;;;33.72;;
359;SDS011;168;48.872;9.226;2022-12-18T03:27:55;63.35;;;32.58;;
359;SDS011;168;48.872;9.226;2022-12-18T03:30:26;61.08;;;33.10;;
359;SDS011;168;48.872;9.226;2022-12-18T03:32:56;53.40;;;32.10;;
359;SDS011;168;48.872;9.226;2022-12-18T03:35:29;56.83;;;31.43;;
359;SDS011;168;48.872;9.226;2022-12-18T03:38:01;53.13;;;32.75;;
359;SDS011;168;48.872;9.226;2022-12-18T03:40:29;46.50;;;30.30;;
359;SDS011;168;48.872;9.226;2022-12-18T03:43:08;51.65;;;30.20;;
359;SDS011;168;48.872;9.226;2022-12-18T03:45:45;53.57;;;32.63;;
359;SDS011;168;48.872;9.226;2022-12-18T03:48:18;44.83;;;28.20;;
359;SDS011;168;48.872;9.226;2022-12-18T03:50:53;52.50;;;31.70;;
359;SDS011;168;48.872;9.226;2022-12-18T03:53:26;42.22;;;27.33;;
359;SDS011;168;48.872;9.226;2022-12-18T03:56:00;53.57;;;30.63;;
359;SDS011;168;48.872;9.226;2022-12-18T03:58:32;50.58;;;30.23;;
359;SDS011;168;48.872;9.226;2022-12-18T04:01:02;48.53;;;29.93;;
359;SDS011;168;48.872;9.226;2022-12-18T04:03:33;43.55;;;28.40;;
359;SDS011;168;48.872;9.226;2022-12-18T04:06:02;52.20;;;30.90;;
359;SDS011;168;48.872;9.226;2022-12-18T04:08:31;50.15;;;30.35;;
359;SDS011;168;48.872;9.226;2022-12-18T04:11:00;55.50;;;31.07;;
359;SDS011;168;48.872;9.226;2022-12-18T04:13:29;52.40;;;29.93;;
359;SDS011;168;48.872;9.226;2022-12-18T04:16:00;49.50;;;30.55;;
359;SDS011;168;48.872;9.226;2022-12-18T04:18:28;54.63;;;31.23;;
359;SDS011;168;48.872;9.226;2022-12-18T04:20:55;52.47;;;30.52;;
359;SDS011;168;48.872;9.226;2022-12-18T04:23:23;54.28;;;31.15;;
359;SDS011;168;48.872;9.226;2022-12-18T04:25:50;50.47;;;30.13;;
359;SDS011;168;48.872;9.226;2022-12-18T04:28:17;49.55;;;28.30;;
359;SDS011;168;48.872;9.226;2022-12-18T04:30:46;50.45;;;28.90;;
359;SDS011;168;48.872;9.226;2022-12-18T04:33:14;44.22;;;29.70;;
359;SDS011;168;48.872;9.226;2022-12-18T04:35:42;52.92;;;32.55;;
359;SDS011;168;48.872;9.226;2022-12-18T04:38:09;45.63;;;29.33;;
359;SDS011;168;48.872;9.226;2022-12-18T04:40:37;48.38;;;29.50;;
359;SDS011;168;48.872;9.226;2022-12-18T04:43:04;47.00;;;29.92;;
359;SDS011;168;48.872;9.226;2022-12-18T04:45:32;47.45;;;28.83;;
359;SDS011;168;48.872;9.226;2022-12-18T04:48:02;48.28;;;27.25;;
359;SDS011;168;48.872;9.226;2022-12-18T04:50:30;47.80;;;27.98;;
359;SDS011;168;48.872;9.226;2022-12-18T04:52:59;43.28;;;27.75;;
359;SDS011;168;48.872;9.226;2022-12-18T04:55:26;41.30;;;26.55;;
359;SDS011;168;48.872;9.226;2022-12-18T04:57:54;46.10;;;27.23;;
359;SDS011;168;48.872;9.226;2022-12-18T05:00:22;48.13;;;29.38;;
359;SDS011;168;48.872;9.226;2022-12-18T05:02:50;44.53;;;29.35;;
359;SDS011;168;48.872;9.226;2022-12-18T05:05:18;47.40;;;30.15;;
359;SDS011;168;48.872;9.226;2022-12-18T05:07:46;41.78;;;28.02;;
359;SDS011;168;48.872;9.226;2022-12-18T05:10:13;49.25;;;30.00;;
359;SDS011;168;48.872;9.226;2022-12-18T05:12:41;43.10;;;27.48;;
359;SDS011;168;48.872;9.226;2022-12-18T05:15:22;44.00;;;27.48;;
359;SDS011;168;48.872;9.226;2022-12-18T05:17:50;49.03;;;28.57;;
359;SDS011;168;48.872;9.226;2022-12-18T05:20:19;43.30;;;27.25;;
359;SDS011;168;48.872;9.226;2022-12-18T05:22:46;42.05;;;26.55;;
359;SDS011;168;48.872;9.226;2022-12-18T05:25:13;40.30;;;26.02;;
359;SDS011;168;48.872;9.226;2022-12-18T05:27:41;37.80;;;23.67;;
359;SDS011;168;48.872;9.226;2022-12-18T05:30:09;45.58;;;26.10;;
359;SDS011;168;48.872;9.226;2022-12-18T05:32:38;41.95;;;25.55;;
359;SDS011;168;48.872;9.226;2022-12-18T05:35:06;39.27;;;26.17;;
359;SDS011;168;48.872;9.226;2022-12-18T05:37:36;35.72;;;23.15;;
359;SDS011;168;48.872;9.226;2022-12-18T05:40:04;42.28;;;24.73;;
359;SDS011;168;48.872;9.226;2022-12-18T05:42:33;41.72;;;24.73;;
359;SDS011;168;48.872;9.226;2022-12-18T05:45:00;40.65;;;23.35;;
359;SDS011;168;48.872;9.226;2022-12-18T05:47:28;38.63;;;25.73;;
359;SDS011;168;48.872;9.226;2022-12-18T05:49:56;44.30;;;27.30;;
359;SDS011;168;48.872;9.226;2022-12-18T05:52:23;37.92;;;24.88;;
359;SDS011;168;48.872;9.226;2022-12-18T05:54:52;41.15;;;24.20;;
359;SDS011;168;48.872;9.226;2022-12-18T05:57:20;40.78;;;25.20;;
359;SDS011;168;48.872;9.226;2022-12-18T05:59:47;45.78;;;26.52;;
359;SDS011;168;48.872;9.226;2022-12-18T06:02:15;47.20;;;26.70;;
359;SDS011;168;48.872;9.226;2022-12-18T06:04:42;42.65;;;25.00;;
359;SDS011;168;48.872;9.226;2022-12-18T06:07:10;45.28;;;26.13;;
359;SDS011;168;48.872;9.226;2022-12-18T06:09:37;43.97;;;26.27;;
359;SDS011;168;48.872;9.226;2022-12-18T06:12:07;45.22;;;25.65;;
359;SDS011;168;48.872;9.226;2022-12-18T06:14:34;46.42;;;27.25;;
359;SDS011;168;48.872;9.226;2022-12-18T06:17:01;43.83;;;26.08;;
359;SDS011;168;48.872;9.226;2022-12-18T06:19:29;45.95;;;26.58;;
359;SDS011;168;48.872;9.226;2022-12-18T06:21:56;42.80;;;26.83;;
359;SDS011;168;48.872;9.226;2022-12-18T06:24:24;45.38;;;25.55;;
359;SDS011;168;48.872;9.226;2022-12-18T06:26:51;46.15;;;25.77;;
359;SDS011;168;48.872;9.226;2022-12-18T06:29:20;39.95;;;24.33;;
359;SDS011;168;48.872;9.226;2022-12-18T06:31:48;46.38;;;26.17;;
359;SDS011;168;48.872;9.226;2022-12-18T06:34:15;40.03;;;24.45;;
359;SDS011;168;48.872;9.226;2022-12-18T06:36:43;44.70;;;26.27;;
359;SDS011;168;48.872;9.226;2022-12-18T06:39:10;41.53;;;24.17;;
359;SDS011;168;48.872;9.226;2022-12-18T06:41:38;41.70;;;25.40;;
359;SDS011;168;48.872;9.226;2022-12-18T06:44:06;40.60;;;24.42;;
359;SDS011;168;48.872;9.226;2022-12-18T06:46:34;47.13;;;28.42;;
359;SDS011;168;48.872;9.226;2022-12-18T06:49:03;40.92;;;25.20;;
359;SDS011;168;48.872;9.226;2022-12-18T06:51:30;41.90;;;25.30;;
359;SDS011;168;48.872;9.226;2022-12-18T06:53:58;36.90;;;25.27;;
359;SDS011;168;48.872;9.226;2022-12-18T06:56:26;41.38;;;24.25;;
359;SDS011;168;48.872;9.226;2022-12-18T06:58:53;46.03;;;26.60;;
359;SDS011;168;48.872;9.226;2022-12-18T07:01:21;42.72;;;24.83;;
359;SDS011;168;48.872;9.226;2022-12-18T07:03:53;43.17;;;25.98;;
359;SDS011;168;48.872;9.226;2022-12-18T07:06:22;39.78;;;26.13;;
359;SDS011;168;48.872;9.226;2022-12-18T07:08:53;39.72;;;24.10;;
359;SDS011;168;48.872;9.226;2022-12-18T07:11:20;42.65;;;25.65;;
359;SDS011;168;48.872;9.226;2022-12-18T07:13:48;41.22;;;23.75;;
359;SDS011;168;48.872;9.226;2022-12-18T07:16:16;46.53;;;24.33;;
359;SDS011;168;48.872;9.226;2022-12-18T07:18:46;42.58;;;27.60;;
359;SDS011;168;48.872;9.226;2022-12-18T07:21:15;38.90;;;24.92;;
359;SDS011;168;48.872;9.226;2022-12-18T07:23:43;45.40;;;27.13;;
359;SDS011;168;48.872;9.226;2022-12-18T07:26:13;41.33;;;25.55;;
359;SDS011;168;48.872;9.226;2022-12-18T07:28:43;48.20;;;27.40;;
359;SDS011;168;48.872;9.226;2022-12-18T07:31:11;43.00;;;25.55;;
359;SDS011;168;48.872;9.226;2022-12-18T07:33:40;43.10;;;25.60;;
359;SDS011;168;48.872;9.226;2022-12-18T07:36:08;43.45;;;24.52;;
359;SDS011;168;48.872;9.226;2022-12-18T07:38:38;42.60;;;27.00;;
359;SDS011;168;48.872;9.226;2022-12-18T07:41:07;45.17;;;26.33;;
359;SDS011;168;48.872;9.226;2022-12-18T07:43:36;40.58;;;26.13;;
359;SDS011;168;48.872;9.226;2022-12-18T07:46:05;44.50;;;26.48;;
359;SDS011;168;48.872;9.226;2022-12-18T07:48:34;40.22;;;25.63;;
359;SDS011;168;48.872;9.226;2022-12-18T07:51:02;37.63;;;24.23;;
359;SDS011;168;48.872;9.226;2022-12-18T07:53:31;40.08;;;25.83;;
359;SDS011;168;48.872;9.226;2022-12-18T07:56:01;42.55;;;26.45;;
359;SDS011;168;48.872;9.226;2022-12-18T07:58:30;40.92;;;24.30;;
359;SDS011;168;48.872;9.226;2022-12-18T08:01:02;40.90;;;25.08;;
359;SDS011;168;48.872;9.226;2022-12-18T08:03:30;37.08;;;22.95;;
359;SDS011;168;48.872;9.226;2022-12-18T08:05:59;44.38;;;26.02;;
359;SDS011;168;48.872;9.226;2022-12-18T08:08:27;41.08;;;25.13;;
359;SDS011;168;48.872;9.226;2022-12-18T08:10:55;44.92;;;27.63;;
359;SDS011;168;48.872;9.226;2022-12-18T08:13:26;36.33;;;26.35;;
359;SDS011;168;48.872;9.226;2022-12-18T08:15:59;40.28;;;23.85;;
359;SDS011;168;48.872;9.226;2022-12-18T08:18:28;45.50;;;27.48;;
359;SDS011;168;48.872;9.226;2022-12-18T08:20:56;37.80;;;24.30;;
359;SDS011;168;48.872;9.226;2022-12-18T08:23:23;37.90;;;26.33;;
359;SDS011;168;48.872;9.226;2022-12-18T08:25:51;40.33;;;26.17;;
359;SDS011;168;48.872;9.226;2022-12-18T08:28:18;45.33;;;27.52;;
359;SDS011;168;48.872;9.226;2022-12-18T08:30:47;40.65;;;26.95;;
359;SDS011;168;48.872;9.226;2022-12-18T08:33:18;38.15;;;25.75;;
359;SDS011;168;48.872;9.226;2022-12-18T08:35:45;46.45;;;27.52;;
359;SDS011;168;48.872;9.226;2022-12-18T08:38:13;46.33;;;29.90;;
359;SDS011;168;48.872;9.226;2022-12-18T08:40:40;43.53;;;29.60;;
359;SDS011;168;48.872;9.226;2022-12-18T08:43:08;45.47;;;29.37;;
359;SDS011;168;48.872;9.226;2022-12-18T08:45:55;53.50;;;31.13;;
359;SDS011;168;48.872;9.226;2022-12-18T08:48:23;48.57;;;31.30;;
359;SDS011;168;48.872;9.226;2022-12-18T08:50:54;48.33;;;29.63;;
359;SDS011;168;48.872;9.226;2022-12-18T08:53:22;41.17;;;27.67;;
359;SDS011;168;48.872;9.226;2022-12-18T08:55:52;44.70;;;28.33;;
359;SDS011;168;48.872;9.226;2022-12-18T08:58:20;45.63;;;28.60;;
359;SDS011;168;48.872;9.226;2022-12-18T09:00:48;42.87;;;26.90;;
359;SDS011;168;48.872;9.226;2022-12-18T09:03:17;40.77;;;26.97;;
359;SDS011;168;48.872;9.226;2022-12-18T09:05:47;44.73;;;27.10;;
359;SDS011;168;48.872;9.226;2022-12-18T09:08:15;42.30;;;28.70;;
359;SDS011;168;48.872;9.226;2022-12-18T09:10:43;41.77;;;29.73;;
359;SDS011;168;48.872;9.226;2022-12-18T09:13:11;46.20;;;29.33;;
359;SDS011;168;48.872;9.226;2022-12-18T09:15:40;48.10;;;30.37;;
359;SDS011;168;48.872;9.226;2022-12-18T09:18:08;43.87;;;29.73;;
359;SDS011;168;48.872;9.226;2022-12-18T09:20:38;47.70;;;30.77;;
359;SDS011;168;48.872;9.226;2022-12-18T09:23:06;50.27;;;29.67;;
359;SDS011;168;48.872;9.226;2022-12-18T09:25:35;44.77;;;32.13;;
359;SDS011;168;48.872;9.226;2022-12-18T09:28:04;50.77;;;31.20;;
359;SDS011;168;48.872;9.226;2022-12-18T09:30:33;49.30;;;33.08;;
359;SDS011;168;48.872;9.226;2022-12-18T09:33:03;45.83;;;30.33;;
359;SDS011;168;48.872;9.226;2022-12-18T09:35:30;50.47;;;31.10;;
359;SDS011;168;48.872;9.226;2022-12-18T09:37:59;45.20;;;30.80;;
359;SDS011;168;48.872;9.226;2022-12-18T09:40:36;49.50;;;32.10;;
359;SDS011;168;48.872;9.226;2022-12-18T09:43:11;42.77;;;28.37;;
359;SDS011;168;48.872;9.226;2022-12-18T09:45:49;52.63;;;31.57;;
359;SDS011;168;48.872;9.226;2022-12-18T09:48:22;45.57;;;31.10;;
359;SDS011;168;48.872;9.226;2022-12-18T09:50:53;56.37;;;32.40;;
359;SDS011;168;48.872;9.226;2022-12-18T09:56:41;46.57;;;29.43;;
359;SDS011;168;48.872;9.226;2022-12-18T09:59:26;48.60;;;30.77;;
359;SDS011;168;48.872;9.226;2022-12-18T10:02:12;54.63;;;35.13;;
359;SDS011;168;48.872;9.226;2022-12-18T10:04:41;53.63;;;35.60;;
359;SDS011;168;48.872;9.226;2022-12-18T10:07:12;57.57;;;35.17;;
359;SDS011;168;48.872;9.226;2022-12-18T10:09:49;54.30;;;33.70;;
359;SDS011;168;48.872;9.226;2022-12-18T10:12:25;45.30;;;32.03;;
359;SDS011;168;48.872;9.226;2022-12-18T10:17:43;53.33;;;32.80;;
359;SDS011;168;48.872;9.226;2022-12-18T10:20:18;48.97;;;30.90;;
359;SDS011;168;48.872;9.226;2022-12-18T10:22:57;51.07;;;31.90;;
359;SDS011;168;48.872;9.226;2022-12-18T10:25:33;51.07;;;30.70;;
359;SDS011;168;48.872;9.226;2022-12-18T10:28:07;49.10;;;33.17;;
359;SDS011;168;48.872;9.226;2022-12-18T10:30:44;51.27;;;31.20;;
359;SDS011;168;48.872;9.226;2022-12-18T10:33:27;47.63;;;31.67;;
359;SDS011;168;48.872;9.226;2022-12-18T10:36:06;45.57;;;31.30;;
359;SDS011;168;48.872;9.226;2022-12-18T10:38:35;49.43;;;32.30;;
359;SDS011;168;48.872;9.226;2022-12-18T10:41:04;48.10;;;32.33;;
359;SDS011;168;48.872;9.226;2022-12-18T10:43:37;48.90;;;32.53;;
359;SDS011;168;48.872;9.226;2022-12-18T10:46:12;44.67;;;31.10;;
359;SDS011;168;48.872;9.226;2022-12-18T10:48:52;49.20;;;31.73;;
359;SDS011;168;48.872;9.226;2022-12-18T10:51:22;52.57;;;33.30;;
359;SDS011;168;48.872;9.226;2022-12-18T10:53:52;45.47;;;28.40;;
359;SDS011;168;48.872;9.226;2022-12-18T10:56:23;45.67;;;30.40;;
359;SDS011;168;48.872;9.226;2022-12-18T10:58:57;53.87;;;31.53;;
359;SDS011;168;48.872;9.226;2022-12-18T11:01:26;46.37;;;29.60;;
359;SDS011;168;48.872;9.226;2022-12-18T11:03:59;106.37;;;48.13;;
359;SDS011;168;48.872;9.226;2022-12-18T11:06:28;119.87;;;57.60;;
359;SDS011;168;48.872;9.226;2022-12-18T11:08:59;196.77;;;91.00;;
359;SDS011;168;48.872;9.226;2022-12-18T11:11:30;63.20;;;36.50;;
359;SDS011;168;48.872;9.226;2022-12-18T11:13:59;66.10;;;36.57;;
359;SDS011;168;48.872;9.226;2022-12-18T11:16:30;57.87;;;33.97;;
359;SDS011;168;48.872;9.226;2022-12-18T11:19:10;56.23;;;33.07;;
359;SDS011;168;48.872;9.226;2022-12-18T11:21:48;52.37;;;31.57;;
359;SDS011;168;48.872;9.226;2022-12-18T11:24:18;47.37;;;31.50;;
359;SDS011;168;48.872;9.226;2022-12-18T11:26:49;44.93;;;31.47;;
359;SDS011;168;48.872;9.226;2022-12-18T11:29:17;50.03;;;31.73;;
359;SDS011;168;48.872;9.226;2022-12-18T11:32:12;51.50;;;31.80;;
359;SDS011;168;48.872;9.226;2022-12-18T11:35:03;49.60;;;32.10;;
359;SDS011;168;48.872;9.226;2022-12-18T11:37:38;46.33;;;31.03;;
359;SDS011;168;48.872;9.226;2022-12-18T11:40:11;48.67;;;31.00;;
359;SDS011;168;48.872;9.226;2022-12-18T11:42:46;53.77;;;31.20;;
359;SDS011;168;48.872;9.226;2022-12-18T11:45:28;49.00;;;32.23;;
359;SDS011;168;48.872;9.226;2022-12-18T11:48:03;41.23;;;28.57;;
359;SDS011;168;48.872;9.226;2022-12-18T11:50:43;44.87;;;29.43;;
359;SDS011;168;48.872;9.226;2022-12-18T11:53:15;45.77;;;31.47;;
359;SDS011;168;48.872;9.226;2022-12-18T11:55:47;45.80;;;30.03;;
359;SDS011;168;48.872;9.226;2022-12-18T11:58:27;44.40;;;28.83;;
359;SDS011;168;48.872;9.226;2022-12-18T12:01:07;45.10;;;31.40;;
359;SDS011;168;48.872;9.226;2022-12-18T12:03:54;46.87;;;29.83;;
359;SDS011;168;48.872;9.226;2022-12-18T12:06:40;44.20;;;27.83;;
359;SDS011;168;48.872;9.226;2022-12-18T12:09:53;43.60;;;29.50;;
359;SDS011;168;48.872;9.226;2022-12-18T12:12:56;44.30;;;29.07;;
359;SDS011;168;48.872;9.226;2022-12-18T12:19:36;45.50;;;33.20;;
359;SDS011;168;48.872;9.226;2022-12-18T12:22:15;43.73;;;29.67;;
359;SDS011;168;48.872;9.226;2022-12-18T12:24:54;43.13;;;31.53;;
359;SDS011;168;48.872;9.226;2022-12-18T12:27:35;41.20;;;28.17;;
359;SDS011;168;48.872;9.226;2022-12-18T12:30:11;46.53;;;30.37;;
359;SDS011;168;48.872;9.226;2022-12-18T12:32:51;46.63;;;30.50;;
359;SDS011;168;48.872;9.226;2022-12-18T12:35:31;41.63;;;28.13;;
359;SDS011;168;48.872;9.226;2022-12-18T12:38:11;44.77;;;30.90;;
359;SDS011;168;48.872;9.226;2022-12-18T12:40:43;43.03;;;28.93;;
359;SDS011;168;48.872;9.226;2022-12-18T12:43:19;40.27;;;28.13;;
359;SDS011;168;48.872;9.226;2022-12-18T12:45:53;43.07;;;27.73;;
359;SDS011;168;48.872;9.226;2022-12-18T12:48:32;40.40;;;26.60;;
359;SDS011;168;48.872;9.226;2022-12-18T12:51:10;37.57;;;26.77;;
359;SDS011;168;48.872;9.226;2022-12-18T12:53:44;43.47;;;27.60;;
359;SDS011;168;48.872;9.226;2022-12-18T12:56:13;43.10;;;29.47;;
359;SDS011;168;48.872;9.226;2022-12-18T12:58:45;40.17;;;26.73;;
359;SDS011;168;48.872;9.226;2022-12-18T13:01:22;41.83;;;27.73;;
359;SDS011;168;48.872;9.226;2022-12-18T13:03:58;45.47;;;29.30;;
359;SDS011;168;48.872;9.226;2022-12-18T13:06:39;43.70;;;27.03;;
359;SDS011;168;48.872;9.226;2022-12-18T13:09:10;42.50;;;28.30;;
359;SDS011;168;48.872;9.226;2022-12-18T13:11:39;41.00;;;28.23;;
359;SDS011;168;48.872;9.226;2022-12-18T13:14:29;43.27;;;27.90;;
359;SDS011;168;48.872;9.226;2022-12-18T13:17:15;39.87;;;26.67;;
359;SDS011;168;48.872;9.226;2022-12-18T13:22:43;36.93;;;25.53;;
359;SDS011;168;48.872;9.226;2022-12-18T13:25:34;40.10;;;26.17;;
359;SDS011;168;48.872;9.226;2022-12-18T13:28:14;38.73;;;25.93;;
359;SDS011;168;48.872;9.226;2022-12-18T13:30:46;39.70;;;26.93;;
359;SDS011;168;48.872;9.226;2022-12-18T13:36:28;45.43;;;26.27;;
359;SDS011;168;48.872;9.226;2022-12-18T13:39:20;41.40;;;27.00;;
359;SDS011;168;48.872;9.226;2022-12-18T13:41:50;33.73;;;23.80;;
359;SDS011;168;48.872;9.226;2022-12-18T13:44:24;34.20;;;24.73;;
359;SDS011;168;48.872;9.226;2022-12-18T13:46:57;41.87;;;27.33;;
359;SDS011;168;48.872;9.226;2022-12-18T13:49:26;38.30;;;26.40;;
359;SDS011;168;48.872;9.226;2022-12-18T13:52:02;41.27;;;25.40;;
359;SDS011;168;48.872;9.226;2022-12-18T13:54:43;38.10;;;23.70;;
359;SDS011;168;48.872;9.226;2022-12-18T13:57:25;36.83;;;23.40;;
359;SDS011;168;48.872;9.226;2022-12-18T13:59:54;37.07;;;24.07;;
359;SDS011;168;48.872;9.226;2022-12-18T14:02:22;34.63;;;24.30;;
359;SDS011;168;48.872;9.226;2022-12-18T14:04:52;38.07;;;24.97;;
359;SDS011;168;48.872;9.226;2022-12-18T14:07:22;38.20;;;26.37;;
359;SDS011;168;48.872;9.226;2022-12-18T14:09:53;46.43;;;26.87;;
359;SDS011;168;48.872;9.226;2022-12-18T14:12:23;40.10;;;28.07;;
359;SDS011;168;48.872;9.226;2022-12-18T14:15:12;44.63;;;31.87;;
359;SDS011;168;48.872;9.226;2022-12-18T14:17:49;47.67;;;34.17;;
359;SDS011;168;48.872;9.226;2022-12-18T14:20:17;41.90;;;28.10;;
359;SDS011;168;48.872;9.226;2022-12-18T14:22:45;36.50;;;25.60;;
359;SDS011;168;48.872;9.226;2022-12-18T14:25:16;40.20;;;26.80;;
359;SDS011;168;48.872;9.226;2022-12-18T14:27:46;37.80;;;26.07;;
359;SDS011;168;48.872;9.226;2022-12-18T14:30:23;40.80;;;26.03;;
359;SDS011;168;48.872;9.226;2022-12-18T14:33:04;40.40;;;26.40;;
359;SDS011;168;48.872;9.226;2022-12-18T14:35:42;36.40;;;26.00;;
359;SDS011;168;48.872;9.226;2022-12-18T14:38:22;40.70;;;27.50;;
359;SDS011;168;48.872;9.226;2022-12-18T14:40:53;42.57;;;26.03;;
359;SDS011;168;48.872;9.226;2022-12-18T14:46:32;42.67;;;26.60;;
359;SDS011;168;48.872;9.226;2022-12-18T14:49:03;42.60;;;26.93;;
359;SDS011;168;48.872;9.226;2022-12-18T14:51:46;45.80;;;28.43;;
359;SDS011;168;48.872;9.226;2022-12-18T14:54:16;42.40;;;27.70;;
359;SDS011;168;48.872;9.226;2022-12-18T14:56:47;40.20;;;25.50;;
359;SDS011;168;48.872;9.226;2022-12-18T14:59:15;46.13;;;28.90;;
359;SDS011;168;48.872;9.226;2022-12-18T15:01:49;42.33;;;28.73;;
359;SDS011;168;48.872;9.226;2022-12-18T15:04:24;41.40;;;27.40;;
359;SDS011;168;48.872;9.226;2022-12-18T15:07:07;41.93;;;27.60;;
359;SDS011;168;48.872;9.226;2022-12-18T15:09:40;43.07;;;27.03;;
359;SDS011;168;48.872;9.226;2022-12-18T15:12:28;38.40;;;28.10;;
359;SDS011;168;48.872;9.226;2022-12-18T15:15:01;42.47;;;28.97;;
359;SDS011;168;48.872;9.226;2022-12-18T15:17:28;40.93;;;28.90;;
359;SDS011;168;48.872;9.226;2022-12-18T15:19:58;41.30;;;28.83;;
359;SDS011;168;48.872;9.226;2022-12-18T15:22:29;40.03;;;27.40;;
359;SDS011;168;48.872;9.226;2022-12-18T15:24:59;40.57;;;27.47;;
359;SDS011;168;48.872;9.226;2022-12-18T15:27:29;42.97;;;29.00;;
359;SDS011;168;48.872;9.226;2022-12-18T15:30:01;38.10;;;27.40;;
359;SDS011;168;48.872;9.226;2022-12-18T15:32:29;47.30;;;27.70;;
359;SDS011;168;48.872;9.226;2022-12-18T15:35:02;42.30;;;26.87;;
359;SDS011;168;48.872;9.226;2022-12-18T15:37:35;44.03;;;28.80;;
359;SDS011;168;48.872;9.226;2022-12-18T15:40:03;37.10;;;27.00;;
359;SDS011;168;48.872;9.226;2022-12-18T15:42:32;45.23;;;26.90;;
359;SDS011;168;48.872;9.226;2022-12-18T15:45:17;35.07;;;24.90;;
359;SDS011;168;48.872;9.226;2022-12-18T15:47:45;43.73;;;26.30;;
359;SDS011;168;48.872;9.226;2022-12-18T15:50:12;36.30;;;23.80;;
359;SDS011;168;48.872;9.226;2022-12-18T15:52:40;37.93;;;25.07;;
359;SDS011;168;48.872;9.226;2022-12-18T15:55:10;38.53;;;24.20;;
359;SDS011;168;48.872;9.226;2022-12-18T15:57:58;37.20;;;22.70;;
359;SDS011;168;48.872;9.226;2022-12-18T16:00:26;40.07;;;22.57;;
359;SDS011;168;48.872;9.226;2022-12-18T16:02:54;37.17;;;23.63;;
359;SDS011;168;48.872;9.226;2022-12-18T16:05:22;41.10;;;23.80;;